Time;durP1;ratioP1;P1;durP2;ratioP2;P2;SDS_P1;SDS_P2;PMS_P1;PMS_P2;Temp;Humidity;BMP_temperature;BMP_pressure;BME280_temperature;BME280_humidity;BME280_pressure;Samples;Min_cycle;Max_cycle;Signal;HPM_P1;HPM_P2
2022/05/24 00:00:30;;;;;;;9.00;8.03;;;15.80;99.90;;;;;;5030026;28;20247;-74
2022/05/24 00:03:14;;;;;;;9.57;8.30;;;15.80;99.90;;;;;;5028213;28;20183;-75
2022/05/24 00:05:58;;;;;;;8.20;7.37;;;15.80;99.90;;;;;;5018892;28;20250;-76
2022/05/24 00:08:43;;;;;;;8.47;7.57;;;15.70;99.90;;;;;;5028871;28;20215;-75
2022/05/24 00:11:28;;;;;;;8.27;7.47;;;15.70;99.90;;;;;;5026028;28;20194;-75
2022/05/24 00:14:12;;;;;;;10.80;7.47;;;15.70;99.90;;;;;;5027611;28;20261;-74
2022/05/24 00:16:56;;;;;;;10.07;7.83;;;15.70;99.90;;;;;;5025291;28;20195;-75
2022/05/24 00:19:40;;;;;;;10.33;8.50;;;15.60;99.90;;;;;;5035013;28;20572;-75
2022/05/24 00:22:24;;;;;;;9.77;8.87;;;15.60;99.90;;;;;;5025330;28;20618;-74
2022/05/24 00:25:09;;;;;;;10.90;8.97;;;15.60;99.90;;;;;;5030191;28;20183;-74
2022/05/24 00:27:55;;;;;;;11.10;9.77;;;15.50;99.90;;;;;;5029171;28;20178;-74
2022/05/24 00:30:40;;;;;;;11.00;9.90;;;15.50;99.90;;;;;;5027286;28;20215;-74
2022/05/24 00:33:26;;;;;;;11.23;10.13;;;15.40;99.90;;;;;;5030387;28;20678;-75
2022/05/24 00:36:10;;;;;;;11.53;10.10;;;15.40;99.90;;;;;;5029224;28;20184;-74
2022/05/24 00:38:55;;;;;;;10.37;9.33;;;15.40;99.90;;;;;;5033331;28;20234;-74
2022/05/24 00:41:44;;;;;;;11.57;10.40;;;15.40;99.90;;;;;;5030013;28;20193;-75
2022/05/24 00:44:36;;;;;;;12.87;9.87;;;15.40;99.90;;;;;;5029669;28;20239;-75
2022/05/24 00:47:38;;;;;;;12.20;10.03;;;15.30;99.90;;;;;;5024711;28;20184;-75
2022/05/24 00:50:31;;;;;;;10.50;9.50;;;15.30;99.90;;;;;;5025226;28;20250;-73
2022/05/24 00:53:24;;;;;;;9.20;8.17;;;15.30;99.90;;;;;;5032192;28;20267;-74
2022/05/24 00:56:21;;;;;;;9.80;8.00;;;15.20;99.90;;;;;;5028474;28;20568;-75
2022/05/24 00:59:07;;;;;;;8.17;7.23;;;15.20;99.90;;;;;;5026199;28;20729;-75
2022/05/24 01:01:54;;;;;;;9.23;6.53;;;15.20;99.90;;;;;;5029231;28;20188;-75
2022/05/24 01:04:38;;;;;;;7.20;6.23;;;15.20;99.90;;;;;;5022720;28;20265;-75
2022/05/24 01:07:23;;;;;;;7.50;5.60;;;15.20;99.90;;;;;;5030167;28;20187;-75
2022/05/24 01:10:16;;;;;;;6.87;5.20;;;15.20;99.90;;;;;;5027666;28;20211;-76
2022/05/24 01:13:22;;;;;;;6.10;5.50;;;15.10;99.90;;;;;;5025786;28;20272;-75
2022/05/24 01:16:06;;;;;;;7.67;4.87;;;15.10;99.90;;;;;;5024721;28;20249;-75
2022/05/24 01:18:51;;;;;;;6.07;5.40;;;15.10;99.90;;;;;;5038448;28;20214;-75
2022/05/24 01:21:35;;;;;;;10.97;5.10;;;15.10;99.90;;;;;;5029235;28;20215;-76
2022/05/24 01:24:23;;;;;;;8.17;5.10;;;15.00;99.90;;;;;;5035755;28;20195;-75
2022/05/24 01:27:08;;;;;;;7.70;5.63;;;15.00;99.90;;;;;;5027971;28;20667;-75
2022/05/24 01:29:52;;;;;;;7.10;5.37;;;15.00;99.90;;;;;;5030733;28;20215;-75
2022/05/24 01:38:48;;;;;;;5.63;5.07;;;15.00;99.90;;;;;;5031716;28;20210;-76
2022/05/24 01:41:51;;;;;;;7.77;6.43;;;14.90;99.90;;;;;;5046113;28;20219;-74
2022/05/24 01:44:39;;;;;;;7.73;6.47;;;14.90;99.90;;;;;;5045744;28;20219;-75
2022/05/24 01:47:24;;;;;;;7.93;6.30;;;14.90;99.90;;;;;;5030942;28;20187;-75
2022/05/24 01:50:14;;;;;;;7.40;6.70;;;14.90;99.90;;;;;;5034873;28;20219;-75
2022/05/24 01:53:05;;;;;;;11.43;7.03;;;14.90;99.90;;;;;;5033849;28;20202;-75
2022/05/24 01:55:54;;;;;;;9.03;7.30;;;14.90;99.90;;;;;;5028315;28;20618;-75
2022/05/24 01:58:40;;;;;;;7.87;7.07;;;14.90;99.90;;;;;;5023544;28;20291;-75
2022/05/24 02:01:32;;;;;;;8.17;7.37;;;14.90;99.90;;;;;;5024717;28;20191;-75
2022/05/24 02:04:19;;;;;;;7.97;7.13;;;14.90;99.90;;;;;;5029141;28;20187;-74
2022/05/24 02:07:08;;;;;;;10.03;7.70;;;14.90;99.90;;;;;;5035931;28;20187;-74
2022/05/24 02:09:56;;;;;;;9.30;6.87;;;14.80;99.90;;;;;;5031522;28;20300;-75
2022/05/24 02:12:48;;;;;;;9.90;7.03;;;14.80;99.90;;;;;;5032766;28;20250;-75
2022/05/24 02:15:35;;;;;;;11.03;6.73;;;14.80;99.90;;;;;;5031970;28;20203;-75
2022/05/24 02:18:23;;;;;;;7.13;6.40;;;14.80;99.90;;;;;;5032690;28;20187;-76
2022/05/24 02:21:07;;;;;;;7.93;5.83;;;14.80;99.90;;;;;;5042205;28;20189;-74
2022/05/24 02:23:54;;;;;;;7.13;5.37;;;14.70;99.90;;;;;;5032772;28;20203;-75
2022/05/24 02:26:38;;;;;;;7.43;5.30;;;14.70;99.90;;;;;;5027224;28;20195;-75
2022/05/24 02:29:23;;;;;;;7.50;5.90;;;14.70;99.90;;;;;;5030307;28;20218;-75
2022/05/24 02:32:07;;;;;;;8.20;5.57;;;14.70;99.90;;;;;;5029260;28;20203;-77
2022/05/24 02:34:51;;;;;;;5.70;4.87;;;14.70;99.90;;;;;;5030578;28;20203;-73
2022/05/24 02:37:36;;;;;;;6.10;4.93;;;14.60;99.90;;;;;;5037694;28;20195;-73
2022/05/24 02:43:23;;;;;;;5.93;3.93;;;14.70;99.90;;;;;;5026115;28;20210;-74
2022/05/24 02:46:08;;;;;;;5.47;4.03;;;14.60;99.90;;;;;;5029661;28;20246;-74
2022/05/24 02:48:53;;;;;;;6.27;3.77;;;14.60;99.90;;;;;;5034057;28;20211;-75
2022/05/24 02:51:39;;;;;;;5.67;3.93;;;14.60;99.90;;;;;;5031442;28;20186;-75
2022/05/24 02:54:23;;;;;;;5.23;4.20;;;14.50;99.90;;;;;;5034012;28;20187;-75
2022/05/24 02:57:07;;;;;;;5.27;4.20;;;14.50;99.90;;;;;;5036155;28;20191;-75
2022/05/24 02:59:51;;;;;;;5.20;3.90;;;14.50;99.90;;;;;;5029092;28;20222;-75
2022/05/24 03:02:35;;;;;;;4.00;3.60;;;14.50;99.90;;;;;;5036950;28;20210;-75
2022/05/24 03:05:20;;;;;;;5.70;3.53;;;14.50;99.90;;;;;;5028330;28;20195;-75
2022/05/24 03:11:09;;;;;;;4.10;3.70;;;14.40;99.90;;;;;;5029484;28;20291;-75
2022/05/24 03:16:56;;;;;;;6.90;4.50;;;14.40;99.90;;;;;;5031393;28;20234;-75
2022/05/24 03:19:51;;;;;;;7.40;4.87;;;14.40;99.90;;;;;;5040088;28;20218;-76
2022/05/24 03:22:35;;;;;;;6.53;4.57;;;14.30;99.90;;;;;;5031904;28;20222;-73
2022/05/24 03:25:19;;;;;;;5.70;4.80;;;14.30;99.90;;;;;;5031404;28;20179;-73
2022/05/24 03:28:05;;;;;;;6.07;4.20;;;14.30;99.90;;;;;;5030411;28;20621;-73
2022/05/24 03:30:49;;;;;;;5.37;4.87;;;14.30;99.90;;;;;;5028238;28;20199;-73
2022/05/24 03:33:34;;;;;;;6.03;5.23;;;14.30;99.90;;;;;;5026602;28;20203;-74
2022/05/24 03:36:22;;;;;;;7.80;5.33;;;14.30;99.90;;;;;;5025136;28;20195;-73
2022/05/24 03:39:07;;;;;;;7.70;5.33;;;14.30;99.90;;;;;;5042431;28;20218;-73
2022/05/24 03:41:51;;;;;;;7.07;5.80;;;14.30;99.90;;;;;;5024679;28;20231;-73
2022/05/24 03:44:36;;;;;;;7.03;6.10;;;14.30;99.90;;;;;;5026925;28;20210;-74
2022/05/24 03:47:19;;;;;;;8.87;6.83;;;14.30;99.90;;;;;;5030117;28;20191;-75
2022/05/24 03:50:08;;;;;;;11.50;7.27;;;14.40;99.90;;;;;;5027918;28;20310;-75
2022/05/24 03:52:52;;;;;;;9.93;8.47;;;14.40;99.90;;;;;;5033351;28;20195;-75
2022/05/24 03:55:36;;;;;;;10.17;8.00;;;14.30;99.90;;;;;;5042080;28;20183;-75
2022/05/24 03:58:22;;;;;;;11.60;8.53;;;14.30;99.90;;;;;;5052682;28;20190;-76
2022/05/24 04:01:06;;;;;;;12.23;9.70;;;14.30;99.90;;;;;;5036691;28;20253;-75
2022/05/24 04:03:50;;;;;;;11.77;10.27;;;14.30;99.90;;;;;;5029557;28;20191;-75
2022/05/24 04:06:34;;;;;;;13.03;10.40;;;14.30;99.90;;;;;;5024174;28;20198;-74
2022/05/24 04:09:19;;;;;;;16.20;11.33;;;14.40;99.90;;;;;;5026918;28;20215;-74
2022/05/24 04:12:03;;;;;;;13.50;11.20;;;14.40;99.90;;;;;;5029806;28;20639;-74
2022/05/24 04:14:48;;;;;;;16.17;12.17;;;14.40;99.90;;;;;;5025959;28;20192;-74
2022/05/24 04:17:32;;;;;;;14.30;11.47;;;14.40;99.90;;;;;;5023907;28;20547;-74
2022/05/24 04:20:16;;;;;;;14.00;11.77;;;14.40;99.90;;;;;;5029146;28;20593;-74
2022/05/24 04:23:02;;;;;;;13.97;11.57;;;14.40;99.90;;;;;;5027228;28;20199;-74
2022/05/24 04:25:47;;;;;;;14.40;12.33;;;14.40;99.90;;;;;;5029852;28;20187;-74
2022/05/24 04:28:31;;;;;;;16.10;13.20;;;14.40;99.90;;;;;;5023413;28;20234;-75
2022/05/24 04:31:16;;;;;;;16.67;14.23;;;14.50;99.90;;;;;;5018294;28;20195;-74
2022/05/24 04:34:00;;;;;;;18.03;14.23;;;14.40;99.90;;;;;;5025877;28;20234;-75
2022/05/24 04:36:45;;;;;;;19.13;14.87;;;14.50;99.90;;;;;;5025450;28;20207;-75
2022/05/24 04:39:31;;;;;;;17.83;14.47;;;14.50;99.90;;;;;;5022062;28;20222;-78
2022/05/24 04:42:18;;;;;;;20.07;14.63;;;14.60;99.90;;;;;;5029187;28;20195;-76
2022/05/24 04:45:06;;;;;;;16.93;14.73;;;14.50;99.90;;;;;;5029965;28;20662;-74
2022/05/24 04:47:51;;;;;;;18.70;14.70;;;14.60;99.90;;;;;;5030138;28;20191;-74
2022/05/24 04:50:36;;;;;;;19.77;15.53;;;14.60;99.90;;;;;;5025317;28;20223;-75
2022/05/24 04:53:22;;;;;;;21.23;16.33;;;14.60;99.90;;;;;;5023089;28;20192;-74
2022/05/24 04:56:06;;;;;;;22.60;15.70;;;14.60;99.90;;;;;;5030403;28;20199;-74
2022/05/24 04:58:51;;;;;;;23.03;15.73;;;14.60;99.90;;;;;;5029100;28;20274;-74
2022/05/24 05:01:35;;;;;;;20.17;16.27;;;14.70;99.90;;;;;;5031139;28;20645;-74
2022/05/24 05:04:20;;;;;;;20.03;16.47;;;14.70;99.90;;;;;;5030915;28;20179;-74
2022/05/24 05:07:05;;;;;;;20.10;16.73;;;14.70;99.90;;;;;;5032118;28;20234;-75
2022/05/24 05:09:50;;;;;;;22.10;18.43;;;14.80;99.90;;;;;;5027279;28;20249;-74
2022/05/24 05:12:35;;;;;;;23.07;17.60;;;14.80;99.90;;;;;;5027677;28;20203;-73
2022/05/24 05:15:19;;;;;;;23.63;18.43;;;14.80;99.90;;;;;;5030792;28;20231;-74
2022/05/24 05:18:06;;;;;;;23.30;19.30;;;14.80;99.90;;;;;;5026172;28;20216;-74
2022/05/24 05:20:50;;;;;;;23.73;18.90;;;14.80;99.90;;;;;;5026460;28;20683;-74
2022/05/24 05:23:35;;;;;;;24.13;18.83;;;14.80;99.90;;;;;;5032749;28;20184;-74
2022/05/24 05:26:18;;;;;;;22.73;19.17;;;14.80;99.90;;;;;;5027470;28;20237;-75
2022/05/24 05:29:03;;;;;;;23.53;19.67;;;14.90;99.90;;;;;;5033315;28;20211;-74
2022/05/24 05:31:47;;;;;;;28.37;20.93;;;14.90;99.90;;;;;;5033660;28;20171;-74
2022/05/24 05:34:32;;;;;;;25.97;21.53;;;14.90;99.90;;;;;;5038793;28;20222;-74
2022/05/24 05:37:17;;;;;;;26.77;20.03;;;14.90;99.90;;;;;;5029493;28;20182;-74
2022/05/24 05:40:04;;;;;;;24.93;19.80;;;14.90;99.90;;;;;;5035610;28;20298;-74
2022/05/24 05:42:48;;;;;;;26.53;19.93;;;14.90;99.90;;;;;;5036564;28;20325;-74
2022/05/24 05:45:32;;;;;;;24.77;18.80;;;14.90;99.90;;;;;;5032772;28;20195;-74
2022/05/24 05:48:17;;;;;;;25.77;20.73;;;14.90;99.90;;;;;;5033575;28;20218;-74
2022/05/24 05:51:01;;;;;;;25.37;18.77;;;15.00;99.90;;;;;;5039118;28;20175;-74
2022/05/24 05:53:46;;;;;;;25.20;19.20;;;15.00;99.90;;;;;;5033342;28;20278;-74
2022/05/24 05:56:30;;;;;;;24.30;19.43;;;15.00;99.90;;;;;;5042964;28;20223;-74
2022/05/24 05:59:14;;;;;;;23.47;19.53;;;15.00;99.90;;;;;;5034524;28;20223;-74
2022/05/24 06:02:00;;;;;;;26.67;19.63;;;15.00;99.90;;;;;;5033319;28;20167;-74
2022/05/24 06:04:47;;;;;;;27.30;20.40;;;15.00;99.90;;;;;;5032968;28;20186;-74
2022/05/24 06:07:31;;;;;;;22.03;18.33;;;15.10;99.90;;;;;;5026689;28;20689;-73
2022/05/24 06:10:16;;;;;;;28.60;20.63;;;15.10;99.90;;;;;;5035644;28;20217;-75
2022/05/24 06:13:00;;;;;;;24.27;19.40;;;15.10;99.90;;;;;;5038708;28;20199;-74
2022/05/24 06:15:48;;;;;;;26.13;19.20;;;15.10;99.90;;;;;;5033557;28;20187;-74
2022/05/24 06:18:33;;;;;;;24.13;19.07;;;15.20;99.90;;;;;;5023645;28;20267;-75
2022/05/24 06:21:17;;;;;;;24.83;18.67;;;15.20;99.90;;;;;;5037287;28;20200;-74
2022/05/24 06:24:03;;;;;;;23.93;17.70;;;15.20;99.90;;;;;;5032896;28;20191;-74
2022/05/24 06:26:50;;;;;;;21.80;17.13;;;15.30;99.90;;;;;;5026195;28;20666;-75
2022/05/24 06:29:36;;;;;;;27.47;18.27;;;15.30;99.90;;;;;;5033241;28;20265;-75
2022/05/24 06:32:20;;;;;;;20.97;17.63;;;15.40;99.90;;;;;;5036723;28;20237;-74
2022/05/24 06:35:05;;;;;;;22.37;17.03;;;15.50;99.90;;;;;;5031782;28;20199;-75
2022/05/24 06:37:49;;;;;;;20.27;16.30;;;15.50;99.90;;;;;;5029393;28;20228;-74
2022/05/24 06:40:34;;;;;;;22.40;16.17;;;15.50;99.90;;;;;;5035864;28;20226;-73
2022/05/24 06:43:18;;;;;;;19.80;15.07;;;15.60;99.90;;;;;;5035599;28;20204;-74
2022/05/24 06:46:07;;;;;;;21.50;15.93;;;15.60;99.90;;;;;;5029938;28;20218;-74
2022/05/24 06:48:51;;;;;;;21.13;15.63;;;15.60;99.90;;;;;;5034158;28;20211;-75
2022/05/24 06:51:36;;;;;;;19.17;15.73;;;15.60;99.90;;;;;;5029057;28;20548;-75
2022/05/24 06:54:20;;;;;;;19.87;15.17;;;15.60;99.90;;;;;;5034509;28;20209;-74
2022/05/24 06:57:05;;;;;;;20.30;15.57;;;15.60;99.90;;;;;;5035558;28;20183;-75
2022/05/24 07:03:10;;;;;;;18.47;14.93;;;15.70;99.90;;;;;;5037856;28;20240;-74
2022/05/24 07:05:55;;;;;;;19.70;14.63;;;15.60;99.90;;;;;;5040873;28;20190;-74
2022/05/24 07:08:39;;;;;;;13.63;10.63;;;15.60;99.90;;;;;;5060254;28;20213;-75
2022/05/24 07:11:24;;;;;;;11.77;8.60;;;15.60;99.90;;;;;;5053623;28;20202;-75
2022/05/24 07:14:08;;;;;;;12.83;8.70;;;15.50;99.90;;;;;;5061668;28;20182;-74
2022/05/24 07:16:52;;;;;;;14.07;8.40;;;15.50;99.90;;;;;;5051407;28;20271;-75
2022/05/24 07:19:38;;;;;;;10.67;8.13;;;15.40;99.90;;;;;;5044695;28;20246;-74
2022/05/24 07:22:22;;;;;;;12.80;8.43;;;15.40;99.90;;;;;;5044982;28;20194;-74
2022/05/24 07:25:07;;;;;;;13.43;8.17;;;15.40;99.90;;;;;;5053558;28;20211;-75
2022/05/24 07:27:52;;;;;;;11.37;7.70;;;15.40;99.90;;;;;;5055278;28;20232;-75
2022/05/24 07:30:36;;;;;;;8.93;7.13;;;15.40;99.90;;;;;;5043933;28;20250;-74
2022/05/24 07:33:20;;;;;;;11.80;7.20;;;15.40;99.90;;;;;;5048422;28;20247;-75
2022/05/24 07:36:06;;;;;;;11.87;7.20;;;15.30;99.90;;;;;;5051406;28;20716;-74
2022/05/24 07:38:50;;;;;;;12.03;6.77;;;15.20;99.90;;;;;;5027728;28;20258;-75
2022/05/24 07:47:38;;;;;;;6.23;5.03;;;15.20;99.90;;;;;;5022064;28;20188;-74
2022/05/24 07:50:22;;;;;;;6.67;5.23;;;15.10;99.90;;;;;;5018623;28;20204;-74
2022/05/24 07:53:08;;;;;;;9.60;6.10;;;15.10;99.90;;;;;;5021033;28;20187;-74
2022/05/24 07:55:54;;;;;;;9.03;5.50;;;15.10;99.90;;;;;;5028650;28;20231;-74
2022/05/24 07:58:38;;;;;;;6.17;5.23;;;15.10;99.90;;;;;;5029797;28;20211;-74
2022/05/24 08:01:23;;;;;;;8.27;6.20;;;15.10;99.90;;;;;;5028504;28;20203;-74
2022/05/24 08:04:09;;;;;;;10.97;6.50;;;15.10;99.90;;;;;;5029669;28;20647;-74
2022/05/24 08:06:55;;;;;;;8.57;5.83;;;15.00;99.90;;;;;;5024036;28;20192;-74
2022/05/24 08:09:40;;;;;;;11.30;6.30;;;15.00;99.90;;;;;;5020382;28;20219;-74
2022/05/24 08:12:24;;;;;;;10.97;6.73;;;14.90;99.90;;;;;;5026677;28;20587;-74
2022/05/24 08:15:10;;;;;;;9.90;7.23;;;14.90;99.90;;;;;;5026276;28;20250;-74
2022/05/24 08:17:54;;;;;;;9.50;7.07;;;14.90;99.90;;;;;;5026420;28;20195;-74
2022/05/24 08:20:39;;;;;;;12.30;7.47;;;14.90;99.90;;;;;;5026458;28;20311;-74
2022/05/24 08:23:25;;;;;;;12.73;6.60;;;14.90;99.90;;;;;;5026406;28;20246;-74
2022/05/24 08:26:09;;;;;;;10.23;7.40;;;14.80;99.90;;;;;;5022827;28;20191;-75
2022/05/24 08:28:53;;;;;;;11.73;7.17;;;14.80;99.90;;;;;;5018965;28;20215;-74
2022/05/24 08:31:38;;;;;;;9.93;7.70;;;14.80;99.90;;;;;;5027488;28;20191;-74
2022/05/24 08:34:22;;;;;;;11.30;7.60;;;14.80;99.90;;;;;;5033090;28;20195;-76
2022/05/24 08:37:07;;;;;;;14.20;7.57;;;14.80;99.90;;;;;;5030570;28;20194;-74
2022/05/24 08:39:51;;;;;;;9.67;7.10;;;14.80;99.90;;;;;;5036873;28;20227;-75
2022/05/24 08:43:06;;;;;;;12.67;7.23;;;14.80;99.90;;;;;;5033079;28;20191;-74
2022/05/24 08:49:11;;;;;;;12.40;8.33;;;14.70;99.90;;;;;;5031163;28;20211;-75
2022/05/24 08:52:02;;;;;;;11.00;7.20;;;14.70;99.90;;;;;;5035142;28;20180;-74
2022/05/24 08:54:46;;;;;;;13.23;8.33;;;14.80;99.90;;;;;;5029307;28;20249;-75
2022/05/24 08:57:46;;;;;;;10.40;8.37;;;14.80;99.90;;;;;;5032746;28;20230;-75
2022/05/24 09:00:39;;;;;;;14.50;8.47;;;14.70;99.90;;;;;;5023495;28;20243;-74
2022/05/24 09:03:25;;;;;;;10.50;8.73;;;14.70;99.90;;;;;;5018944;28;20252;-75
2022/05/24 09:06:32;;;;;;;13.10;9.20;;;14.80;99.90;;;;;;5025817;28;20195;-75
2022/05/24 09:09:35;;;;;;;13.50;9.37;;;14.80;99.90;;;;;;5033082;28;20291;-75
2022/05/24 09:12:41;;;;;;;15.87;9.27;;;14.80;99.90;;;;;;5027828;28;20246;-74
2022/05/24 09:15:49;;;;;;;13.37;9.57;;;14.90;99.90;;;;;;5025270;28;20189;-75
2022/05/24 09:18:55;;;;;;;13.70;9.43;;;14.90;99.90;;;;;;5015099;28;20259;-75
2022/05/24 09:21:42;;;;;;;12.00;10.07;;;14.90;99.90;;;;;;5018619;28;20191;-75
2022/05/24 09:24:30;;;;;;;12.33;9.97;;;14.90;99.90;;;;;;5022778;28;20196;-75
2022/05/24 09:27:17;;;;;;;14.90;9.87;;;15.00;99.90;;;;;;5032337;28;20187;-75
2022/05/24 09:30:05;;;;;;;12.97;9.53;;;15.00;99.90;;;;;;5033225;28;20539;-74
2022/05/24 09:32:50;;;;;;;10.80;9.70;;;15.00;99.90;;;;;;5034116;28;20222;-75
2022/05/24 09:35:40;;;;;;;14.80;9.63;;;15.10;99.90;;;;;;5037531;28;20191;-75
2022/05/24 09:38:34;;;;;;;15.90;9.10;;;15.20;99.90;;;;;;5030204;28;20650;-75
2022/05/24 09:41:23;;;;;;;12.47;9.13;;;15.10;99.90;;;;;;5028236;28;20215;-76
2022/05/24 09:44:14;;;;;;;11.00;9.03;;;15.20;99.90;;;;;;5031501;28;20326;-75
2022/05/24 09:46:58;;;;;;;10.27;8.40;;;15.20;99.90;;;;;;5041724;28;20519;-75
2022/05/24 09:49:42;;;;;;;10.87;8.40;;;15.30;99.90;;;;;;5035050;28;20232;-76
2022/05/24 09:52:26;;;;;;;10.13;7.43;;;15.30;99.90;;;;;;5040569;28;20215;-76
2022/05/24 09:55:11;;;;;;;10.20;7.27;;;15.50;99.90;;;;;;5043029;28;20171;-75
2022/05/24 09:58:17;;;;;;;10.63;7.20;;;15.60;99.90;;;;;;5036986;28;20207;-75
2022/05/24 10:01:03;;;;;;;9.73;7.70;;;15.70;99.90;;;;;;5036149;28;20254;-75
2022/05/24 10:03:49;;;;;;;12.47;7.43;;;15.70;99.90;;;;;;5039051;28;20211;-75
2022/05/24 10:06:33;;;;;;;8.93;7.57;;;15.80;99.90;;;;;;5043632;28;20195;-75
2022/05/24 10:09:20;;;;;;;8.07;6.77;;;15.80;99.90;;;;;;5034007;28;20230;-75
2022/05/24 10:12:11;;;;;;;12.13;7.03;;;15.80;99.90;;;;;;5040889;28;20223;-75
2022/05/24 10:15:14;;;;;;;10.70;6.67;;;15.90;99.90;;;;;;5045388;28;20178;-75
2022/05/24 10:18:20;;;;;;;6.90;6.20;;;15.90;99.90;;;;;;5033767;28;20188;-75
2022/05/24 10:21:16;;;;;;;7.73;6.10;;;15.90;99.90;;;;;;5033248;28;20223;-76
2022/05/24 10:24:49;;;;;;;7.30;6.30;;;16.00;99.90;;;;;;5030035;28;20238;-74
2022/05/24 10:27:42;;;;;;;9.57;6.57;;;16.10;99.90;;;;;;5016444;28;20190;-74
2022/05/24 10:30:49;;;;;;;7.93;5.37;;;16.20;99.90;;;;;;5026620;28;20219;-73
2022/05/24 10:40:25;;;;;;;5.90;5.27;;;16.30;99.90;;;;;;5035144;28;20227;-73
2022/05/24 10:43:30;;;;;;;5.50;4.77;;;16.20;99.90;;;;;;5050796;28;20701;-74
2022/05/24 10:46:18;;;;;;;4.30;3.90;;;16.20;99.90;;;;;;5043767;28;20234;-74
2022/05/24 10:49:30;;;;;;;7.87;4.40;;;16.20;99.90;;;;;;5025279;28;20577;-73
2022/05/24 10:52:39;;;;;;;6.70;4.90;;;16.20;99.90;;;;;;5049472;28;20219;-74
2022/05/24 10:55:36;;;;;;;6.17;4.10;;;16.10;99.90;;;;;;5031880;28;20272;-74
2022/05/24 10:58:20;;;;;;;4.57;4.03;;;16.00;99.90;;;;;;5029652;28;20253;-74
2022/05/24 11:01:27;;;;;;;5.33;3.97;;;16.00;99.90;;;;;;5041848;28;20202;-73
2022/05/24 11:04:20;;;;;;;4.90;4.03;;;16.00;99.90;;;;;;5041447;28;20214;-76
2022/05/24 11:07:11;;;;;;;9.17;3.97;;;16.00;99.90;;;;;;5034005;28;20262;-74
2022/05/24 11:10:15;;;;;;;8.57;4.17;;;16.10;99.90;;;;;;5032924;28;20219;-76
2022/05/24 11:13:10;;;;;;;6.07;3.90;;;16.20;99.90;;;;;;5028888;28;20187;-74
2022/05/24 11:16:03;;;;;;;5.20;3.60;;;16.40;99.90;;;;;;5032948;28;20191;-75
2022/05/24 11:18:47;;;;;;;5.23;3.67;;;16.50;99.90;;;;;;5030416;28;20729;-75
2022/05/24 11:21:39;;;;;;;3.97;3.00;;;16.70;99.90;;;;;;5027025;28;20218;-75
2022/05/24 11:25:01;;;;;;;5.30;2.90;;;16.80;99.90;;;;;;5031913;28;20179;-75
2022/05/24 11:28:14;;;;;;;4.60;2.53;;;16.90;99.90;;;;;;5037956;28;20727;-76
2022/05/24 11:31:28;;;;;;;7.27;2.37;;;17.00;99.90;;;;;;5012008;28;20558;-75
2022/05/24 11:34:31;;;;;;;5.20;2.90;;;17.00;99.90;;;;;;5014214;28;20605;-75
2022/05/24 11:37:29;;;;;;;6.73;2.90;;;17.00;99.90;;;;;;5030543;28;20199;-74
2022/05/24 11:40:36;;;;;;;3.97;2.63;;;17.10;99.90;;;;;;5031500;28;20308;-74
2022/05/24 11:43:43;;;;;;;3.33;2.30;;;17.00;99.90;;;;;;5043320;28;20271;-75
2022/05/24 11:46:33;;;;;;;3.77;2.20;;;16.90;99.90;;;;;;5037342;28;20186;-75
2022/05/24 11:49:21;;;;;;;5.40;2.30;;;16.90;99.90;;;;;;5030845;28;20215;-75
2022/05/24 11:52:42;;;;;;;3.57;2.30;;;16.80;99.90;;;;;;5018107;28;20219;-75
2022/05/24 11:55:55;;;;;;;4.10;2.47;;;16.90;99.90;;;;;;5038773;28;20206;-75
2022/05/24 11:58:48;;;;;;;2.33;1.90;;;17.00;99.90;;;;;;5002992;28;20202;-75
2022/05/24 12:01:37;;;;;;;2.43;1.27;;;17.00;99.90;;;;;;5031180;28;20543;-75
2022/05/24 12:07:54;;;;;;;1.83;1.60;;;17.00;99.90;;;;;;5026106;28;20190;-74
2022/05/24 12:10:43;;;;;;;7.80;1.70;;;17.10;99.90;;;;;;5034534;28;20214;-75
2022/05/24 12:13:32;;;;;;;6.93;2.37;;;17.30;99.90;;;;;;5040161;28;20206;-75
2022/05/24 12:16:54;;;;;;;6.20;1.50;;;17.40;99.90;;;;;;5038129;28;20283;-75
2022/05/24 12:19:41;;;;;;;3.97;1.60;;;17.40;99.90;;;;;;5023218;28;20732;-75
2022/05/24 12:22:49;;;;;;;2.60;1.60;;;17.40;99.90;;;;;;5032869;28;20194;-75
2022/05/24 12:26:03;;;;;;;3.27;1.50;;;17.30;99.90;;;;;;5020936;28;20218;-75
2022/05/24 12:28:52;;;;;;;2.03;1.60;;;17.30;99.90;;;;;;5027347;28;20219;-75
2022/05/24 12:31:37;;;;;;;3.80;2.17;;;17.10;99.90;;;;;;5026028;28;20249;-76
2022/05/24 12:34:21;;;;;;;2.30;1.63;;;17.00;99.90;;;;;;5021879;28;20199;-75
2022/05/24 12:37:29;;;;;;;3.00;1.40;;;16.80;99.90;;;;;;5021133;28;20199;-75
2022/05/24 12:40:29;;;;;;;3.97;2.40;;;16.60;99.90;;;;;;5025672;28;20595;-75
2022/05/24 12:43:16;;;;;;;6.90;2.87;;;16.30;99.90;;;;;;5028689;28;20347;-75
2022/05/24 12:46:01;;;;;;;4.23;2.70;;;16.00;99.90;;;;;;5024392;28;20199;-75
2022/05/24 12:48:52;;;;;;;4.03;2.40;;;15.90;99.90;;;;;;5017220;28;20215;-76
2022/05/24 12:51:39;;;;;;;5.77;2.70;;;15.80;99.90;;;;;;5022768;28;20267;-75
2022/05/24 12:54:35;;;;;;;2.87;2.67;;;15.80;99.90;;;;;;5035994;28;20267;-75
2022/05/24 12:57:44;;;;;;;5.47;3.67;;;15.80;99.90;;;;;;5041275;28;20198;-75
2022/05/24 13:00:28;;;;;;;5.27;4.83;;;15.90;99.90;;;;;;5033892;28;20227;-75
2022/05/24 13:03:22;;;;;;;6.03;5.07;;;15.90;99.90;;;;;;5029630;28;20663;-75
2022/05/24 13:06:07;;;;;;;3.83;3.47;;;15.90;99.90;;;;;;5023420;28;20466;-75
2022/05/24 13:09:26;;;;;;;1.60;1.50;;;15.90;99.90;;;;;;5037515;28;20210;-75
2022/05/24 13:12:12;;;;;;;0.90;0.90;;;15.80;99.90;;;;;;5032961;28;20206;-75
2022/05/24 13:15:15;;;;;;;0.80;0.80;;;15.60;99.90;;;;;;5022348;28;20207;-75
2022/05/24 13:18:03;;;;;;;0.97;0.97;;;15.50;99.90;;;;;;5021977;28;20320;-74
2022/05/24 13:20:54;;;;;;;0.70;0.70;;;15.30;99.90;;;;;;5037455;28;20356;-74
2022/05/24 13:23:41;;;;;;;1.03;0.93;;;15.20;99.90;;;;;;5014438;28;20177;-74
2022/05/24 13:26:25;;;;;;;1.23;1.10;;;15.10;99.90;;;;;;5029109;28;20203;-74
2022/05/24 13:29:21;;;;;;;1.27;1.17;;;15.10;99.90;;;;;;5034780;28;20226;-74
2022/05/24 13:35:10;;;;;;;1.50;1.40;;;15.10;99.90;;;;;;5032208;28;20198;-74
2022/05/24 13:37:57;;;;;;;2.30;2.03;;;15.10;99.90;;;;;;5029544;28;20200;-74
2022/05/24 13:40:52;;;;;;;2.40;2.17;;;15.20;99.90;;;;;;5030976;28;20247;-74
2022/05/24 13:43:45;;;;;;;2.70;2.50;;;15.20;99.90;;;;;;5028886;28;20198;-75
2022/05/24 13:46:29;;;;;;;2.90;2.67;;;15.30;99.90;;;;;;5028106;28;20192;-74
2022/05/24 13:49:25;;;;;;;3.83;3.10;;;15.40;99.90;;;;;;5049482;28;20210;-73
2022/05/24 13:52:15;;;;;;;3.67;3.00;;;15.40;99.90;;;;;;5030943;28;20183;-74
2022/05/24 13:55:08;;;;;;;3.60;3.30;;;15.40;99.90;;;;;;5029516;28;20186;-74
2022/05/24 13:58:10;;;;;;;6.80;3.40;;;15.50;99.90;;;;;;5030172;28;20188;-75
2022/05/24 14:01:42;;;;;;;4.00;3.53;;;15.60;99.90;;;;;;5013470;28;20231;-74
2022/05/24 14:04:28;;;;;;;4.47;3.50;;;15.70;99.90;;;;;;5023204;28;20192;-74
2022/05/24 14:07:12;;;;;;;3.70;3.40;;;15.80;99.90;;;;;;5032093;28;20204;-73
2022/05/24 14:09:57;;;;;;;3.67;3.37;;;16.00;99.90;;;;;;5041330;28;20311;-74
2022/05/24 14:12:42;;;;;;;4.30;3.47;;;16.00;99.90;;;;;;5030430;28;20267;-74
2022/05/24 14:15:29;;;;;;;5.03;4.13;;;16.10;99.90;;;;;;5026819;28;20234;-75
2022/05/24 14:18:14;;;;;;;4.73;3.70;;;16.20;99.90;;;;;;5030564;28;20271;-74
2022/05/24 14:20:59;;;;;;;3.30;3.00;;;16.30;99.90;;;;;;5025175;28;20219;-74
2022/05/24 14:23:43;;;;;;;5.00;1.70;;;16.20;99.90;;;;;;5034776;28;20191;-74
2022/05/24 14:26:27;;;;;;;1.00;0.90;;;16.10;99.90;;;;;;5026262;28;20265;-73
2022/05/24 14:29:11;;;;;;;0.87;0.87;;;15.90;99.90;;;;;;5040368;28;20219;-74
2022/05/24 14:31:56;;;;;;;1.50;0.80;;;15.60;99.90;;;;;;5040385;28;20182;-75
2022/05/24 14:34:41;;;;;;;2.07;1.10;;;15.40;99.90;;;;;;5028628;28;20194;-74
2022/05/24 14:37:25;;;;;;;1.20;1.10;;;15.30;99.90;;;;;;5023082;28;20211;-75
2022/05/24 14:40:12;;;;;;;1.90;1.10;;;15.20;99.90;;;;;;5019947;28;20234;-74
2022/05/24 14:42:56;;;;;;;0.80;0.80;;;15.30;99.90;;;;;;5026092;28;20192;-75
2022/05/24 14:45:40;;;;;;;1.13;1.07;;;15.30;99.90;;;;;;5041696;28;20221;-76
2022/05/24 14:48:25;;;;;;;1.93;1.00;;;15.30;99.90;;;;;;5035584;28;20190;-75
2022/05/24 14:51:11;;;;;;;1.30;1.20;;;15.30;99.90;;;;;;5036928;28;20222;-74
2022/05/24 14:53:56;;;;;;;1.73;1.33;;;15.40;99.90;;;;;;5031750;28;20215;-74
2022/05/24 14:56:40;;;;;;;3.43;1.20;;;15.40;99.90;;;;;;5015822;28;20318;-74
2022/05/24 14:59:27;;;;;;;4.23;1.13;;;15.40;99.90;;;;;;5033122;28;20651;-74
2022/05/24 15:02:14;;;;;;;1.20;1.10;;;15.50;99.90;;;;;;5034955;28;20699;-74
2022/05/24 15:04:58;;;;;;;1.43;1.27;;;15.60;99.90;;;;;;5030182;28;20278;-75
2022/05/24 15:16:55;;;;;;;1.30;1.20;;;16.00;99.90;;;;;;5032994;28;20215;-75
2022/05/24 15:19:41;;;;;;;1.37;1.27;;;16.10;99.90;;;;;;5029888;28;20230;-76
2022/05/24 15:22:25;;;;;;;1.90;1.60;;;16.20;99.90;;;;;;5029446;28;20331;-75